Time;durP1;ratioP1;P1;durP2;ratioP2;P2;SDS_P1;SDS_P2;PMS_P1;PMS_P2;Temp;Humidity;BMP_temperature;BMP_pressure;BME280_temperature;BME280_humidity;BME280_pressure;Samples;Min_cycle;Max_cycle;Signal;HPM_P1;HPM_P2
2021/03/12 00:01:53;;;;;;;30.97;22.67;;;10.10;67.20;;;;;;5038740;28;20025;-84
2021/03/12 00:04:18;;;;;;;34.23;24.97;;;10.10;66.80;;;;;;5052275;28;20415;-84
2021/03/12 00:06:44;;;;;;;34.93;24.87;;;10.10;66.60;;;;;;5042678;28;20029;-84
2021/03/12 00:09:10;;;;;;;36.07;25.40;;;10.10;66.80;;;;;;5036485;28;20449;-84
2021/03/12 00:11:35;;;;;;;32.60;23.17;;;10.10;66.90;;;;;;5044419;28;20024;-84
2021/03/12 00:14:01;;;;;;;36.57;25.30;;;10.10;67.00;;;;;;5040678;28;20021;-84
2021/03/12 00:16:27;;;;;;;35.87;23.47;;;10.20;66.90;;;;;;5045039;28;20021;-84
2021/03/12 00:18:52;;;;;;;33.80;23.63;;;10.10;66.90;;;;;;5044993;28;20037;-84
2021/03/12 00:21:18;;;;;;;31.50;23.67;;;10.10;67.30;;;;;;5035157;28;20022;-84
2021/03/12 00:23:44;;;;;;;31.40;23.93;;;10.10;67.70;;;;;;5041260;28;20044;-84
2021/03/12 00:26:10;;;;;;;31.90;23.97;;;10.10;67.60;;;;;;5045646;28;20029;-84
2021/03/12 00:28:36;;;;;;;34.07;24.20;;;10.00;67.60;;;;;;5042477;28;20471;-84
2021/03/12 00:31:04;;;;;;;30.97;22.90;;;10.00;67.70;;;;;;5038286;28;20025;-84
2021/03/12 00:33:30;;;;;;;34.57;24.03;;;10.10;67.90;;;;;;5047372;28;20044;-84
2021/03/12 00:35:56;;;;;;;28.90;21.17;;;10.10;67.90;;;;;;5046114;28;20463;-84
2021/03/12 00:38:22;;;;;;;28.23;19.50;;;10.10;68.20;;;;;;5038200;28;20026;-84
2021/03/12 00:40:56;;;;;;;25.23;18.23;;;10.20;68.00;;;;;;5045165;28;20021;-84
2021/03/12 00:43:23;;;;;;;28.90;20.87;;;10.30;67.70;;;;;;5037519;28;20037;-84
2021/03/12 00:45:52;;;;;;;31.33;23.37;;;10.40;67.20;;;;;;5039152;28;20021;-84
2021/03/12 00:48:18;;;;;;;30.30;21.73;;;10.50;67.00;;;;;;5047023;28;20033;-84
2021/03/12 00:50:45;;;;;;;28.50;20.20;;;10.50;66.90;;;;;;5034640;28;20041;-84
2021/03/12 00:53:11;;;;;;;30.50;22.83;;;10.40;66.90;;;;;;5042371;28;20444;-84
2021/03/12 00:55:37;;;;;;;30.77;21.80;;;10.40;67.10;;;;;;5040711;28;20030;-84
2021/03/12 00:58:04;;;;;;;34.67;24.37;;;10.30;67.40;;;;;;5048105;28;20353;-84
2021/03/12 01:00:31;;;;;;;33.37;24.67;;;10.30;67.60;;;;;;5040005;28;20017;-84
2021/03/12 01:02:58;;;;;;;33.67;25.37;;;10.30;67.70;;;;;;5047540;28;20021;-84
2021/03/12 01:05:25;;;;;;;35.67;26.03;;;10.30;67.80;;;;;;5047262;28;20112;-84
2021/03/12 01:07:51;;;;;;;36.70;24.90;;;10.20;68.00;;;;;;5041863;28;20029;-84
2021/03/12 01:10:18;;;;;;;40.60;26.23;;;10.30;68.10;;;;;;5040419;28;20076;-84
2021/03/12 01:12:44;;;;;;;34.03;25.17;;;10.20;68.00;;;;;;5037071;28;20037;-84
2021/03/12 01:15:16;;;;;;;33.93;25.23;;;10.20;68.40;;;;;;5048933;28;20037;-84
2021/03/12 01:17:43;;;;;;;33.27;23.90;;;10.20;68.50;;;;;;5037437;28;20044;-84
2021/03/12 01:20:15;;;;;;;37.13;26.03;;;10.00;68.50;;;;;;5052440;28;20100;-84
2021/03/12 01:22:41;;;;;;;35.10;25.75;;;10.00;68.90;;;;;;5050420;28;20021;-84
2021/03/12 01:25:09;;;;;;;35.70;26.50;;;10.00;69.00;;;;;;5037483;28;20116;-84
2021/03/12 01:27:41;;;;;;;36.67;26.00;;;10.10;69.20;;;;;;5047690;28;20028;-84
2021/03/12 01:30:19;;;;;;;36.07;24.93;;;10.10;69.30;;;;;;5045523;28;20036;-83
2021/03/12 01:32:46;;;;;;;35.40;25.47;;;10.10;69.30;;;;;;5044922;28;20028;-84
2021/03/12 01:35:12;;;;;;;28.67;21.33;;;10.10;69.10;;;;;;5041422;28;20042;-84
2021/03/12 01:37:38;;;;;;;30.87;21.90;;;10.10;69.20;;;;;;5049417;28;20025;-84
2021/03/12 01:40:09;;;;;;;30.30;21.30;;;10.10;69.20;;;;;;5040951;28;20117;-83
2021/03/12 01:42:35;;;;;;;30.30;20.97;;;10.00;69.20;;;;;;5039764;28;20104;-84
2021/03/12 01:45:04;;;;;;;30.07;22.10;;;10.00;69.30;;;;;;5047869;28;20056;-84
2021/03/12 01:47:30;;;;;;;32.40;23.73;;;10.00;69.60;;;;;;5044400;28;20617;-84
2021/03/12 01:49:56;;;;;;;33.37;24.87;;;10.00;69.40;;;;;;5048287;28;20549;-84
2021/03/12 01:52:21;;;;;;;35.73;24.67;;;10.00;69.40;;;;;;5047475;28;20029;-83
2021/03/12 01:54:47;;;;;;;33.43;25.23;;;10.00;69.60;;;;;;5039618;28;20032;-84
2021/03/12 01:57:13;;;;;;;31.43;23.77;;;10.00;69.70;;;;;;5041226;28;20028;-83
2021/03/12 01:59:39;;;;;;;32.17;23.43;;;10.00;69.80;;;;;;5038092;28;20047;-83
2021/03/12 02:02:04;;;;;;;30.93;23.57;;;10.00;69.80;;;;;;5044275;28;20372;-84
2021/03/12 02:04:30;;;;;;;32.10;23.47;;;10.10;69.80;;;;;;5045781;28;20033;-84
2021/03/12 02:06:56;;;;;;;36.73;25.13;;;10.10;69.80;;;;;;5047396;28;20039;-84
2021/03/12 02:09:22;;;;;;;29.53;22.53;;;10.10;69.80;;;;;;5047026;28;20037;-84
2021/03/12 02:12:21;;;;;;;34.50;22.77;;;10.10;69.90;;;;;;5040167;28;20057;-84
2021/03/12 02:15:02;;;;;;;31.43;23.67;;;10.00;70.10;;;;;;5041125;28;20116;-84
2021/03/12 02:17:37;;;;;;;33.97;24.10;;;10.00;70.20;;;;;;5035944;28;20048;-84
2021/03/12 02:20:15;;;;;;;32.43;24.47;;;10.00;70.20;;;;;;5038666;28;20464;-84
2021/03/12 02:22:45;;;;;;;33.67;23.67;;;10.00;70.30;;;;;;5053466;28;20032;-84
2021/03/12 02:25:15;;;;;;;35.03;24.93;;;10.00;70.30;;;;;;5049632;28;20033;-84
2021/03/12 02:27:43;;;;;;;35.13;23.97;;;10.00;70.20;;;;;;5047717;28;20021;-84
2021/03/12 02:30:10;;;;;;;33.47;25.50;;;10.00;70.20;;;;;;5037902;28;20029;-84
2021/03/12 02:32:39;;;;;;;35.60;24.13;;;10.00;70.20;;;;;;5049715;28;20077;-84
2021/03/12 02:35:14;;;;;;;32.90;23.13;;;10.00;70.20;;;;;;5049222;28;20087;-84
2021/03/12 02:37:41;;;;;;;30.60;22.50;;;10.00;70.10;;;;;;5049776;28;20100;-84
2021/03/12 02:40:09;;;;;;;30.47;23.07;;;10.00;70.00;;;;;;5044841;28;20411;-84
2021/03/12 02:42:36;;;;;;;32.07;23.53;;;9.90;70.00;;;;;;5037712;28;20025;-84
2021/03/12 02:45:04;;;;;;;28.13;20.63;;;9.90;70.20;;;;;;5045689;28;20518;-84
2021/03/12 02:47:31;;;;;;;30.17;21.97;;;9.90;70.20;;;;;;5039470;28;20107;-84
2021/03/12 02:49:58;;;;;;;24.67;17.43;;;9.90;69.90;;;;;;5044152;28;20028;-84
2021/03/12 02:52:25;;;;;;;24.33;18.10;;;9.90;69.80;;;;;;5040097;28;20033;-84
2021/03/12 02:54:52;;;;;;;22.70;16.37;;;9.90;69.90;;;;;;5054705;28;20112;-84
2021/03/12 02:57:20;;;;;;;24.60;18.13;;;9.90;69.90;;;;;;5045222;28;20021;-84
2021/03/12 02:59:48;;;;;;;30.53;21.90;;;9.90;70.10;;;;;;5034900;28;20026;-84
2021/03/12 03:02:24;;;;;;;31.47;21.93;;;9.90;70.00;;;;;;5036763;28;20025;-84
2021/03/12 03:04:51;;;;;;;35.83;23.17;;;9.90;70.20;;;;;;5043670;28;20043;-84
2021/03/12 03:07:19;;;;;;;36.63;23.73;;;9.90;70.20;;;;;;5037843;28;20053;-84
2021/03/12 03:09:45;;;;;;;31.53;22.83;;;9.90;70.30;;;;;;5037251;28;20036;-84
2021/03/12 03:12:17;;;;;;;32.93;22.93;;;9.90;70.40;;;;;;5041676;28;20035;-84
2021/03/12 03:14:47;;;;;;;31.87;23.37;;;9.90;70.60;;;;;;5047601;28;20471;-84
2021/03/12 03:17:13;;;;;;;35.17;24.40;;;9.90;70.70;;;;;;5043056;28;20026;-84
2021/03/12 03:19:42;;;;;;;29.40;21.03;;;9.90;70.90;;;;;;5044243;28;20468;-84
2021/03/12 03:22:09;;;;;;;33.50;22.73;;;9.90;70.80;;;;;;5043320;28;20029;-84
2021/03/12 03:24:34;;;;;;;33.93;23.70;;;9.90;70.90;;;;;;5036089;28;20029;-84
2021/03/12 03:27:00;;;;;;;31.90;22.63;;;9.90;70.90;;;;;;5040992;28;20120;-84
2021/03/12 03:29:26;;;;;;;30.53;21.97;;;9.90;71.10;;;;;;5040051;28;20029;-85
2021/03/12 03:31:52;;;;;;;35.03;23.43;;;9.80;71.20;;;;;;5045104;28;20029;-84
2021/03/12 03:34:18;;;;;;;33.77;22.80;;;9.80;71.20;;;;;;5048830;28;20132;-84
2021/03/12 03:36:44;;;;;;;34.07;23.57;;;9.80;71.30;;;;;;5036864;28;20116;-84
2021/03/12 03:39:12;;;;;;;30.97;21.90;;;9.80;71.40;;;;;;5033794;28;20026;-84
2021/03/12 03:41:47;;;;;;;29.13;21.00;;;9.80;71.40;;;;;;5043061;28;20024;-84
2021/03/12 03:44:14;;;;;;;27.50;21.10;;;9.80;71.30;;;;;;5045525;28;20036;-84
2021/03/12 03:46:43;;;;;;;30.93;22.37;;;9.80;71.40;;;;;;5037174;28;20395;-84
2021/03/12 03:49:13;;;;;;;26.60;21.00;;;9.80;71.30;;;;;;5036039;28;20136;-84
2021/03/12 03:51:41;;;;;;;31.27;21.23;;;9.80;71.80;;;;;;5047913;28;20071;-84
2021/03/12 03:54:07;;;;;;;24.60;17.37;;;9.80;71.30;;;;;;5035770;28;20044;-84
2021/03/12 03:56:36;;;;;;;25.33;18.33;;;9.80;71.30;;;;;;5047808;28;20036;-84
2021/03/12 03:59:02;;;;;;;25.43;17.87;;;9.80;71.20;;;;;;5051334;28;20025;-84
2021/03/12 04:01:29;;;;;;;24.33;16.80;;;9.80;71.00;;;;;;5041078;28;20520;-84
2021/03/12 04:03:55;;;;;;;23.13;17.13;;;9.80;71.20;;;;;;5035183;28;20033;-84
2021/03/12 04:06:22;;;;;;;22.47;16.80;;;9.80;71.20;;;;;;5051612;28;20481;-84
2021/03/12 04:08:48;;;;;;;20.47;15.40;;;9.80;71.10;;;;;;5047012;28;20029;-84
2021/03/12 04:11:15;;;;;;;20.23;15.80;;;9.80;71.00;;;;;;5047541;28;20440;-84
2021/03/12 04:13:41;;;;;;;19.47;14.43;;;9.80;71.10;;;;;;5040567;28;20104;-84
2021/03/12 04:16:08;;;;;;;20.30;15.47;;;9.80;71.00;;;;;;5047294;28;20032;-84
2021/03/12 04:18:34;;;;;;;21.87;15.70;;;9.80;71.10;;;;;;5034867;28;20442;-84
2021/03/12 04:21:01;;;;;;;23.90;17.60;;;9.70;71.20;;;;;;5051098;28;20025;-84
2021/03/12 04:23:27;;;;;;;21.23;16.17;;;9.70;71.20;;;;;;5037517;28;20029;-84
2021/03/12 04:25:53;;;;;;;20.57;15.20;;;9.70;71.30;;;;;;5040829;28;20036;-84
2021/03/12 04:28:20;;;;;;;28.33;18.00;;;9.70;71.30;;;;;;5038772;28;20455;-84
2021/03/12 04:30:46;;;;;;;22.33;14.80;;;9.60;71.40;;;;;;5037067;28;20022;-84
2021/03/12 04:33:13;;;;;;;18.97;13.10;;;9.60;71.40;;;;;;5034103;28;20029;-84
2021/03/12 04:35:39;;;;;;;17.83;13.30;;;9.70;71.40;;;;;;5034787;28;20030;-84
2021/03/12 04:38:06;;;;;;;18.50;11.90;;;9.70;71.20;;;;;;5034093;28;20032;-84
2021/03/12 04:40:31;;;;;;;14.10;10.43;;;9.60;71.00;;;;;;5045705;28;20025;-84
2021/03/12 04:42:57;;;;;;;15.57;10.63;;;9.60;71.30;;;;;;5047185;28;20021;-84
2021/03/12 04:45:24;;;;;;;15.20;10.90;;;9.60;71.40;;;;;;5051521;28;20434;-84
2021/03/12 04:47:50;;;;;;;16.00;11.40;;;9.60;71.40;;;;;;5036663;28;20079;-84
2021/03/12 04:50:16;;;;;;;15.83;10.57;;;9.60;71.30;;;;;;5046534;28;20025;-84
2021/03/12 04:52:43;;;;;;;17.00;10.67;;;9.50;71.30;;;;;;5050596;28;20029;-84
2021/03/12 04:55:10;;;;;;;13.53;8.77;;;9.50;71.40;;;;;;5054643;28;20025;-84
2021/03/12 04:57:37;;;;;;;12.63;8.13;;;9.50;71.50;;;;;;5047377;28;20021;-84
2021/03/12 05:00:05;;;;;;;12.00;7.10;;;9.50;71.50;;;;;;5044515;28;20487;-84
2021/03/12 05:02:33;;;;;;;11.53;7.33;;;9.40;71.60;;;;;;5038511;28;20018;-84
2021/03/12 05:04:59;;;;;;;15.23;7.93;;;9.40;71.60;;;;;;5044750;28;20469;-84
2021/03/12 05:07:25;;;;;;;13.93;8.23;;;9.50;71.50;;;;;;5038667;28;20116;-84
2021/03/12 05:09:51;;;;;;;13.37;8.93;;;9.40;71.40;;;;;;5047577;28;20488;-84
2021/03/12 05:12:16;;;;;;;12.20;8.40;;;9.40;71.70;;;;;;5035014;28;20080;-84
2021/03/12 05:14:42;;;;;;;11.50;7.70;;;9.40;71.60;;;;;;5046310;28;20475;-84
2021/03/12 05:17:08;;;;;;;10.93;8.13;;;9.40;71.40;;;;;;5038826;28;20027;-84
2021/03/12 05:19:34;;;;;;;12.53;8.13;;;9.40;71.50;;;;;;5040973;28;20028;-84
2021/03/12 05:22:00;;;;;;;10.13;7.57;;;9.30;71.60;;;;;;5039406;28;20423;-84
2021/03/12 05:24:26;;;;;;;11.30;7.07;;;9.40;71.70;;;;;;5042269;28;20068;-84
2021/03/12 05:26:53;;;;;;;12.10;7.30;;;9.40;71.60;;;;;;5041509;28;20025;-84
2021/03/12 05:29:19;;;;;;;14.43;7.50;;;9.40;71.60;;;;;;5043049;28;20475;-84
2021/03/12 05:31:45;;;;;;;10.93;7.40;;;9.40;71.50;;;;;;5039635;28;20064;-84
2021/03/12 05:34:11;;;;;;;12.83;8.50;;;9.40;71.70;;;;;;5042265;28;20061;-84
2021/03/12 05:36:38;;;;;;;12.43;8.40;;;9.30;71.60;;;;;;5038918;28;20025;-84
2021/03/12 05:39:06;;;;;;;12.47;6.83;;;9.40;71.50;;;;;;5049563;28;20025;-85
2021/03/12 05:41:35;;;;;;;10.20;7.70;;;9.30;71.30;;;;;;5039131;28;20495;-84
2021/03/12 05:44:03;;;;;;;12.73;9.43;;;9.30;71.10;;;;;;5044769;28;20025;-84
2021/03/12 05:46:31;;;;;;;11.07;8.03;;;9.30;71.00;;;;;;5045025;28;20029;-84
2021/03/12 05:48:57;;;;;;;28.63;18.80;;;9.30;71.10;;;;;;5057531;28;20414;-84
2021/03/12 05:51:24;;;;;;;26.40;16.83;;;9.30;70.90;;;;;;5046132;28;20068;-84
2021/03/12 05:53:49;;;;;;;25.10;18.03;;;9.30;70.60;;;;;;5047776;28;20095;-84
2021/03/12 05:56:16;;;;;;;33.97;22.50;;;9.30;70.40;;;;;;5040133;28;20021;-84
2021/03/12 05:58:42;;;;;;;15.93;11.67;;;9.30;70.20;;;;;;5054231;28;20013;-84
2021/03/12 06:01:07;;;;;;;11.27;9.17;;;9.20;70.30;;;;;;5053394;28;20086;-84
2021/03/12 06:03:33;;;;;;;13.90;8.83;;;9.20;70.40;;;;;;5050040;28;20434;-84
2021/03/12 06:05:59;;;;;;;11.40;8.20;;;9.20;70.50;;;;;;5046013;28;20036;-84
2021/03/12 06:08:24;;;;;;;12.97;8.87;;;9.30;70.60;;;;;;5050607;28;20472;-84
2021/03/12 06:10:51;;;;;;;21.30;14.20;;;9.20;70.70;;;;;;5046894;28;20480;-84
2021/03/12 06:13:16;;;;;;;28.40;17.77;;;9.20;70.80;;;;;;5051228;28;20048;-84
2021/03/12 06:15:48;;;;;;;24.73;15.40;;;9.20;70.80;;;;;;5043545;28;20492;-84
2021/03/12 06:18:25;;;;;;;20.33;13.57;;;9.20;70.70;;;;;;5043445;28;20025;-84
2021/03/12 06:20:51;;;;;;;18.90;11.90;;;9.10;70.90;;;;;;5033026;28;20021;-84
2021/03/12 06:23:38;;;;;;;11.03;7.00;;;9.10;70.90;;;;;;5045684;28;20104;-85
2021/03/12 06:26:03;;;;;;;7.73;4.97;;;9.20;70.90;;;;;;5041345;28;20799;-85
2021/03/12 06:28:30;;;;;;;8.90;5.30;;;9.10;70.60;;;;;;5039621;28;20029;-85
2021/03/12 06:30:57;;;;;;;11.33;5.90;;;9.10;70.40;;;;;;5044398;28;20033;-84
2021/03/12 06:33:30;;;;;;;7.73;5.60;;;9.10;70.20;;;;;;5043496;28;20479;-85
2021/03/12 06:35:57;;;;;;;11.37;5.73;;;9.00;70.30;;;;;;5046796;28;20715;-85
2021/03/12 06:38:23;;;;;;;10.93;6.40;;;9.00;70.30;;;;;;5037486;28;20080;-85
2021/03/12 06:40:49;;;;;;;10.70;6.80;;;9.00;70.10;;;;;;5046881;28;20035;-85
2021/03/12 06:43:17;;;;;;;13.83;7.17;;;9.00;70.10;;;;;;5056139;28;20025;-85
2021/03/12 06:45:52;;;;;;;11.80;6.97;;;9.00;70.10;;;;;;5045132;28;20060;-85
2021/03/12 06:48:32;;;;;;;11.13;7.20;;;8.90;70.40;;;;;;5044562;28;20021;-85
2021/03/12 06:50:59;;;;;;;11.17;7.23;;;8.90;70.40;;;;;;5046295;28;20093;-85
2021/03/12 06:53:35;;;;;;;10.13;8.00;;;8.80;70.40;;;;;;5038852;28;20029;-84
2021/03/12 06:56:03;;;;;;;9.93;7.17;;;8.90;70.50;;;;;;5044443;28;20053;-84
2021/03/12 06:58:32;;;;;;;13.90;8.27;;;8.80;70.50;;;;;;5042197;28;20658;-84
2021/03/12 07:00:58;;;;;;;11.20;7.87;;;8.90;70.60;;;;;;5046955;28;20025;-84
2021/03/12 07:03:33;;;;;;;13.57;8.57;;;8.90;70.30;;;;;;5048528;28;20026;-84
2021/03/12 07:06:18;;;;;;;13.33;8.50;;;8.90;70.20;;;;;;5051824;28;20021;-84
2021/03/12 07:08:46;;;;;;;12.73;8.33;;;8.90;70.30;;;;;;5037110;28;20522;-84
2021/03/12 07:11:28;;;;;;;10.43;7.47;;;8.90;70.20;;;;;;5038576;28;20103;-82
2021/03/12 07:13:56;;;;;;;10.52;6.93;;;8.90;70.30;;;;;;5048930;28;20108;-83
2021/03/12 07:16:22;;;;;;;7.97;5.80;;;8.90;70.20;;;;;;5040435;28;20029;-84
2021/03/12 07:18:49;;;;;;;11.83;7.43;;;9.00;70.30;;;;;;5036396;28;20534;-84
2021/03/12 07:21:17;;;;;;;13.70;9.37;;;9.00;70.10;;;;;;5060038;28;20017;-83
2021/03/12 07:23:52;;;;;;;15.97;9.57;;;9.00;70.20;;;;;;5050096;28;20025;-83
2021/03/12 07:26:19;;;;;;;17.60;12.10;;;9.10;70.10;;;;;;5036028;28;20112;-82
2021/03/12 07:28:46;;;;;;;19.10;12.53;;;9.00;70.00;;;;;;5038116;28;20026;-83
2021/03/12 07:31:14;;;;;;;17.23;11.27;;;9.10;70.40;;;;;;5039353;28;20041;-83
2021/03/12 07:33:45;;;;;;;15.53;9.77;;;9.10;70.40;;;;;;5047283;28;20052;-83
2021/03/12 07:36:13;;;;;;;14.43;9.50;;;9.10;70.30;;;;;;5050798;28;20033;-85
2021/03/12 07:38:40;;;;;;;16.27;9.37;;;9.20;70.30;;;;;;5041303;28;20468;-84
2021/03/12 07:41:06;;;;;;;12.00;8.80;;;9.20;70.20;;;;;;5041530;28;20021;-84
2021/03/12 07:43:35;;;;;;;13.07;8.83;;;9.30;70.20;;;;;;5047768;28;20079;-84
2021/03/12 07:46:02;;;;;;;15.30;8.53;;;9.30;70.20;;;;;;5039505;28;20047;-84
2021/03/12 07:48:32;;;;;;;9.77;7.57;;;9.40;70.40;;;;;;5048959;28;20426;-84
2021/03/12 07:51:16;;;;;;;15.37;7.97;;;9.40;70.30;;;;;;5044129;28;20065;-84
2021/03/12 07:53:56;;;;;;;9.57;7.07;;;9.50;70.30;;;;;;5038259;28;20104;-83
2021/03/12 07:56:43;;;;;;;13.43;7.00;;;9.60;70.20;;;;;;5047711;28;20029;-83
2021/03/12 07:59:09;;;;;;;11.07;6.20;;;9.60;70.20;;;;;;5041494;28;20033;-84
2021/03/12 08:01:53;;;;;;;8.07;5.20;;;9.60;70.00;;;;;;5040521;28;20078;-83
2021/03/12 08:04:29;;;;;;;5.73;4.83;;;9.70;70.10;;;;;;5040223;28;20538;-84
2021/03/12 08:06:54;;;;;;;6.13;4.87;;;9.70;69.90;;;;;;5041978;28;20029;-84
2021/03/12 08:09:36;;;;;;;9.37;4.67;;;9.70;70.00;;;;;;5052013;28;20491;-84
2021/03/12 08:12:03;;;;;;;8.87;4.90;;;9.80;70.10;;;;;;5047878;28;20109;-83
2021/03/12 08:14:30;;;;;;;7.13;4.90;;;9.80;69.80;;;;;;5041670;28;20112;-84
2021/03/12 08:16:56;;;;;;;6.40;3.83;;;9.80;69.60;;;;;;5048650;28;20017;-83
2021/03/12 08:19:36;;;;;;;5.03;4.00;;;9.70;69.40;;;;;;5043217;28;20376;-84
2021/03/12 08:22:29;;;;;;;8.87;4.83;;;9.70;69.40;;;;;;5046299;28;20029;-84
2021/03/12 08:24:57;;;;;;;6.18;4.70;;;9.80;69.50;;;;;;5042356;28;20039;-84
2021/03/12 08:27:37;;;;;;;8.43;4.77;;;9.80;69.50;;;;;;5040639;28;20040;-84
2021/03/12 08:30:11;;;;;;;7.77;5.27;;;9.90;69.50;;;;;;5045548;28;20022;-84
2021/03/12 08:32:40;;;;;;;11.87;4.90;;;9.90;69.90;;;;;;5037475;28;20033;-84
2021/03/12 08:35:35;;;;;;;11.70;5.27;;;9.80;69.30;;;;;;5034604;28;20449;-84
2021/03/12 08:38:21;;;;;;;8.60;5.00;;;9.80;69.30;;;;;;5036986;28;20041;-84
2021/03/12 08:41:12;;;;;;;9.43;5.73;;;9.90;69.10;;;;;;5036518;28;20053;-84
2021/03/12 08:43:52;;;;;;;10.80;5.73;;;9.90;69.00;;;;;;5035811;28;20056;-83
2021/03/12 08:46:22;;;;;;;12.60;5.93;;;10.00;69.10;;;;;;5051721;28;20033;-84
2021/03/12 08:48:49;;;;;;;12.73;6.73;;;10.10;68.90;;;;;;5048512;28;20665;-84
2021/03/12 08:51:16;;;;;;;10.03;5.20;;;10.30;69.20;;;;;;5045130;28;20044;-84
2021/03/12 08:53:47;;;;;;;14.23;4.83;;;10.50;68.80;;;;;;5050434;28;20116;-84
2021/03/12 08:56:21;;;;;;;5.03;3.00;;;10.70;68.60;;;;;;5051195;28;20031;-84
2021/03/12 08:58:46;;;;;;;4.50;2.57;;;10.70;68.40;;;;;;5051961;28;20031;-84
2021/03/12 09:01:21;;;;;;;3.23;2.40;;;10.80;68.20;;;;;;5034737;28;20770;-84
2021/03/12 09:03:52;;;;;;;3.67;2.30;;;10.90;68.00;;;;;;5040790;28;20040;-84
2021/03/12 09:06:38;;;;;;;5.63;2.63;;;11.00;67.80;;;;;;5046556;28;20419;-84
2021/03/12 09:09:06;;;;;;;3.47;2.73;;;11.20;67.60;;;;;;5044617;28;20076;-83
2021/03/12 09:11:33;;;;;;;9.10;2.70;;;11.50;67.40;;;;;;5051540;28;20025;-84
2021/03/12 09:14:00;;;;;;;4.60;2.63;;;11.70;67.20;;;;;;5042362;28;20021;-84
2021/03/12 09:16:29;;;;;;;6.87;2.50;;;11.90;67.20;;;;;;5036928;28;20022;-84
2021/03/12 09:18:56;;;;;;;4.57;2.23;;;12.20;66.90;;;;;;5039845;28;20048;-84
2021/03/12 09:21:27;;;;;;;3.10;1.60;;;12.30;66.40;;;;;;5051686;28;20022;-84
2021/03/12 09:23:55;;;;;;;2.73;1.23;;;12.50;65.40;;;;;;5033463;28;20032;-84
2021/03/12 09:26:26;;;;;;;6.43;2.40;;;12.50;64.30;;;;;;5041504;28;20113;-84
2021/03/12 09:28:55;;;;;;;4.13;2.27;;;12.40;63.80;;;;;;5036382;28;20018;-84
2021/03/12 09:31:30;;;;;;;5.30;2.40;;;12.50;64.00;;;;;;5035563;28;20053;-84
2021/03/12 09:33:57;;;;;;;7.60;2.50;;;12.50;63.80;;;;;;5049044;28;20065;-84
2021/03/12 09:36:43;;;;;;;6.27;2.23;;;12.50;64.00;;;;;;5046704;28;20037;-84
2021/03/12 09:39:24;;;;;;;6.00;2.13;;;12.40;64.00;;;;;;5049627;28;20022;-84
2021/03/12 09:41:57;;;;;;;5.27;1.80;;;12.50;64.00;;;;;;5053292;28;20189;-84
2021/03/12 09:44:27;;;;;;;5.40;1.80;;;12.80;63.60;;;;;;5044481;28;20498;-84
2021/03/12 09:46:56;;;;;;;6.87;2.23;;;12.90;62.90;;;;;;5047129;28;20033;-84
2021/03/12 09:49:38;;;;;;;7.27;2.57;;;12.90;62.60;;;;;;5039343;28;20387;-84
2021/03/12 09:52:14;;;;;;;7.13;2.70;;;12.90;62.30;;;;;;5049253;28;20048;-84
2021/03/12 09:54:42;;;;;;;8.10;2.83;;;12.70;62.30;;;;;;5039439;28;20121;-84
2021/03/12 09:57:10;;;;;;;6.37;2.67;;;12.60;62.70;;;;;;5045286;28;20036;-84
2021/03/12 09:59:37;;;;;;;11.50;2.50;;;12.60;62.60;;;;;;5042082;28;20051;-84
2021/03/12 10:02:05;;;;;;;6.70;2.37;;;12.50;62.70;;;;;;5040499;28;20071;-84
2021/03/12 10:04:36;;;;;;;9.47;2.70;;;12.40;62.90;;;;;;5036907;28;20407;-84
2021/03/12 10:07:07;;;;;;;7.27;2.93;;;12.40;62.60;;;;;;5042549;28;20029;-84
2021/03/12 10:09:34;;;;;;;21.50;8.60;;;12.40;62.50;;;;;;5039606;28;20033;-84
2021/03/12 10:12:01;;;;;;;16.30;7.07;;;12.40;61.90;;;;;;5036019;28;20037;-84
2021/03/12 10:14:39;;;;;;;23.57;11.57;;;12.30;61.20;;;;;;5040112;28;20029;-83
2021/03/12 10:17:26;;;;;;;19.93;10.67;;;12.50;60.30;;;;;;5041943;28;20033;-83
2021/03/12 10:20:03;;;;;;;10.97;4.87;;;12.60;59.60;;;;;;5039089;28;20088;-84
2021/03/12 10:22:38;;;;;;;17.03;10.27;;;12.70;58.50;;;;;;5043925;28;20029;-83
2021/03/12 10:25:08;;;;;;;10.97;6.13;;;12.70;58.30;;;;;;5036525;28;20096;-83
2021/03/12 10:27:37;;;;;;;7.50;3.83;;;12.70;58.50;;;;;;5037657;28;20048;-83
2021/03/12 10:30:15;;;;;;;8.20;3.97;;;12.70;58.60;;;;;;5048169;28;20469;-83
2021/03/12 10:32:53;;;;;;;5.60;2.60;;;12.80;58.30;;;;;;5039359;28;20104;-83
2021/03/12 10:35:28;;;;;;;5.27;2.13;;;12.80;58.50;;;;;;5045732;28;20045;-83
2021/03/12 10:37:59;;;;;;;2.77;1.20;;;12.70;57.80;;;;;;5051841;28;20426;-83
2021/03/12 10:40:27;;;;;;;2.37;1.10;;;12.60;57.80;;;;;;5039430;28;20084;-83
2021/03/12 10:42:54;;;;;;;4.23;1.77;;;12.50;57.50;;;;;;5043515;28;20574;-84
2021/03/12 10:45:21;;;;;;;5.07;1.70;;;12.60;57.50;;;;;;5038998;28;20034;-84
2021/03/12 10:48:06;;;;;;;3.90;1.17;;;12.60;57.30;;;;;;5036665;28;20031;-83
2021/03/12 10:50:35;;;;;;;4.60;1.60;;;12.70;57.20;;;;;;5039546;28;20029;-84
2021/03/12 10:53:11;;;;;;;3.07;1.20;;;12.70;56.60;;;;;;5054328;28;20480;-84
2021/03/12 10:55:44;;;;;;;7.63;1.27;;;12.70;56.60;;;;;;5057386;28;20033;-84
2021/03/12 10:58:29;;;;;;;;;;;12.80;56.50;;;;;;5052731;28;20036;-84
2021/03/12 11:01:30;;;;;;;13.07;1.73;;;12.70;56.50;;;;;;5054895;28;20379;-84
2021/03/12 11:04:03;;;;;;;4.43;0.73;;;12.70;56.30;;;;;;5045073;28;20047;-84
2021/03/12 11:06:31;;;;;;;6.70;1.10;;;12.60;55.80;;;;;;5056530;28;20018;-85
2021/03/12 11:08:57;;;;;;;5.63;1.23;;;12.60;55.80;;;;;;5044558;28;20112;-84
2021/03/12 11:11:23;;;;;;;8.07;1.43;;;12.60;55.60;;;;;;5037191;28;20052;-84
2021/03/12 11:13:50;;;;;;;7.73;1.40;;;12.60;55.40;;;;;;5041284;28;20021;-84
2021/03/12 11:16:16;;;;;;;6.60;0.90;;;12.60;55.40;;;;;;5056676;28;20364;-84
2021/03/12 11:18:43;;;;;;;3.57;1.20;;;12.70;55.40;;;;;;5054558;28;20014;-84
2021/03/12 11:21:11;;;;;;;5.93;2.10;;;12.70;55.00;;;;;;5056901;28;20021;-84
2021/03/12 11:23:38;;;;;;;5.70;1.47;;;12.80;54.90;;;;;;5041617;28;20129;-84
2021/03/12 11:26:04;;;;;;;8.10;1.40;;;12.80;54.80;;;;;;5045512;28;20018;-84
2021/03/12 11:28:30;;;;;;;5.63;0.80;;;13.00;54.70;;;;;;5039550;28;20021;-84
2021/03/12 11:30:57;;;;;;;8.00;1.30;;;13.10;54.00;;;;;;5051570;28;20040;-84
2021/03/12 11:33:24;;;;;;;3.77;0.90;;;13.20;53.50;;;;;;5051856;28;20045;-84
2021/03/12 11:35:51;;;;;;;5.20;1.50;;;13.30;53.10;;;;;;5046043;28;20083;-84
2021/03/12 11:38:16;;;;;;;7.63;1.40;;;13.30;53.00;;;;;;5037050;28;20025;-84
2021/03/12 11:40:42;;;;;;;6.50;1.30;;;13.30;52.70;;;;;;5033058;28;20104;-84
2021/03/12 11:43:08;;;;;;;4.93;0.97;;;13.30;52.50;;;;;;5031082;28;20047;-84
2021/03/12 11:45:36;;;;;;;5.77;1.57;;;13.30;52.30;;;;;;5037239;28;20036;-84
2021/03/12 11:48:03;;;;;;;5.67;1.40;;;13.20;52.10;;;;;;5038937;28;20468;-84
2021/03/12 11:50:30;;;;;;;8.73;1.10;;;13.20;52.20;;;;;;5054616;28;20036;-84
2021/03/12 11:52:56;;;;;;;4.37;2.03;;;13.20;51.80;;;;;;5043119;28;20032;-84
2021/03/12 11:55:22;;;;;;;3.40;0.67;;;13.30;51.40;;;;;;5049429;28;20096;-84
2021/03/12 11:57:48;;;;;;;6.77;1.27;;;13.20;51.10;;;;;;5044041;28;20033;-84
2021/03/12 12:00:15;;;;;;;3.20;0.50;;;13.20;50.90;;;;;;5039099;28;20490;-84
2021/03/12 12:02:41;;;;;;;3.27;0.60;;;13.10;50.30;;;;;;5046787;28;20041;-84
2021/03/12 12:05:10;;;;;;;2.43;0.50;;;13.10;50.20;;;;;;5036905;28;20597;-85
2021/03/12 12:07:37;;;;;;;5.63;1.10;;;13.10;49.90;;;;;;5046281;28;20029;-84
2021/03/12 12:10:04;;;;;;;2.03;0.60;;;13.30;50.10;;;;;;5052964;28;20035;-84
2021/03/12 12:12:30;;;;;;;3.90;1.30;;;13.40;50.20;;;;;;5049916;28;20068;-84
2021/03/12 12:14:56;;;;;;;1.60;0.60;;;13.60;50.20;;;;;;5036269;28;20033;-84
2021/03/12 12:17:22;;;;;;;2.43;0.50;;;13.70;49.50;;;;;;5038183;28;20085;-84
2021/03/12 12:19:48;;;;;;;3.33;0.60;;;13.60;49.50;;;;;;5045190;28;20032;-85
2021/03/12 12:22:14;;;;;;;2.27;0.40;;;13.50;49.40;;;;;;5039703;28;20021;-85
2021/03/12 12:24:40;;;;;;;2.03;0.30;;;13.50;49.30;;;;;;5038503;28;20037;-84
2021/03/12 12:27:07;;;;;;;10.67;0.87;;;13.30;49.20;;;;;;5041869;28;20607;-85
2021/03/12 12:29:34;;;;;;;5.67;0.60;;;13.40;49.30;;;;;;5056703;28;20058;-85
2021/03/12 12:31:59;;;;;;;2.93;0.70;;;13.50;49.00;;;;;;5044723;28;20422;-85
2021/03/12 12:34:25;;;;;;;4.73;2.03;;;13.70;48.90;;;;;;5052269;28;20045;-85
2021/03/12 12:36:53;;;;;;;4.00;2.30;;;14.00;48.00;;;;;;5043743;28;20044;-85
2021/03/12 12:39:19;;;;;;;3.67;1.60;;;14.20;47.60;;;;;;5046750;28;20113;-85
2021/03/12 12:41:46;;;;;;;3.00;1.53;;;14.50;47.70;;;;;;5044035;28;20064;-85
2021/03/12 12:44:13;;;;;;;11.53;1.27;;;14.70;47.10;;;;;;5042052;28;20033;-85
2021/03/12 12:46:40;;;;;;;2.67;1.00;;;14.80;46.70;;;;;;5039363;28;20114;-85
2021/03/12 12:49:09;;;;;;;2.33;0.93;;;14.90;46.50;;;;;;5049510;28;20427;-85
2021/03/12 12:51:35;;;;;;;3.20;1.20;;;14.90;46.30;;;;;;5056557;28;20104;-85